createdAt,value
2023-10-26T00:01:44.064Z,1.15
2023-10-26T00:04:12.294Z,2.05
2023-10-26T00:06:40.885Z,2.15
2023-10-26T00:09:11.067Z,1.65
2023-10-26T00:11:39.506Z,4.13
2023-10-26T00:14:08.419Z,2.28
2023-10-26T00:16:37.253Z,1.08
2023-10-26T00:19:06.570Z,2.25
2023-10-26T00:21:35.185Z,1.50
2023-10-26T00:24:03.799Z,0.82
2023-10-26T00:26:33.576Z,1.42
2023-10-26T00:29:02.628Z,2.15
2023-10-26T00:31:31.219Z,1.30
2023-10-26T00:34:00.537Z,1.10
2023-10-26T00:36:28.918Z,1.00
2023-10-26T00:38:57.414Z,1.23
2023-10-26T00:41:25.889Z,1.23
2023-10-26T00:43:57.020Z,1.00
2023-10-26T00:46:26.361Z,3.13
2023-10-26T00:48:54.943Z,0.93
2023-10-26T00:51:23.571Z,1.10
2023-10-26T00:56:44.242Z,0.93
2023-10-26T00:59:17.829Z,1.00
2023-10-26T01:04:19.799Z,1.30
2023-10-26T01:06:50.422Z,1.50
2023-10-26T01:09:21.501Z,1.20
2023-10-26T01:11:50.202Z,2.88
2023-10-26T01:14:34.033Z,3.25
2023-10-26T01:19:39.742Z,2.28
2023-10-26T01:22:09.687Z,1.20
2023-10-26T01:24:39.126Z,1.40
2023-10-26T01:27:07.744Z,1.77
2023-10-26T01:29:36.037Z,1.65
2023-10-26T01:32:04.017Z,1.40
2023-10-26T01:34:33.523Z,1.40
2023-10-26T01:37:01.427Z,1.30
2023-10-26T01:39:30.890Z,1.80
2023-10-26T01:41:59.012Z,2.10
2023-10-26T01:44:27.004Z,1.35
2023-10-26T01:46:55.124Z,1.55
2023-10-26T01:49:23.862Z,2.53
2023-10-26T01:51:52.004Z,2.22
2023-10-26T01:54:20.129Z,1.70
2023-10-26T01:56:49.868Z,1.58
2023-10-26T01:59:18.442Z,1.60
2023-10-26T02:01:46.901Z,1.90
2023-10-26T02:04:14.864Z,1.98
2023-10-26T02:06:43.057Z,2.13
2023-10-26T02:09:11.208Z,2.72
2023-10-26T02:11:40.276Z,2.97
2023-10-26T02:14:10.523Z,1.55
2023-10-26T02:16:38.644Z,2.08
2023-10-26T02:19:07.016Z,1.98
2023-10-26T02:21:36.624Z,1.23
2023-10-26T02:24:05.233Z,1.70
2023-10-26T02:26:33.340Z,2.53
2023-10-26T02:29:01.440Z,1.92
2023-10-26T02:31:30.639Z,1.90
2023-10-26T02:33:58.678Z,4.53
2023-10-26T02:36:26.915Z,2.95
2023-10-26T02:38:55.058Z,3.40
2023-10-26T02:41:23.004Z,1.85
2023-10-26T02:43:51.399Z,1.90
2023-10-26T02:46:19.736Z,1.92
2023-10-26T02:48:49.087Z,1.67
2023-10-26T02:51:17.355Z,1.98
2023-10-26T02:53:46.427Z,1.50
2023-10-26T02:56:14.818Z,2.33
2023-10-26T02:58:42.973Z,2.08
2023-10-26T03:01:10.951Z,4.93
2023-10-26T03:03:39.113Z,2.85
2023-10-26T03:06:08.918Z,4.40
2023-10-26T03:08:36.946Z,4.65
2023-10-26T03:11:05.269Z,2.72
2023-10-26T03:13:33.472Z,2.22
2023-10-26T03:16:01.693Z,3.20
2023-10-26T03:18:29.704Z,1.60
2023-10-26T03:20:57.846Z,1.92
2023-10-26T03:23:27.282Z,1.63
2023-10-26T03:25:55.273Z,2.72
2023-10-26T03:28:23.489Z,2.40
2023-10-26T03:30:54.521Z,2.13
2023-10-26T03:33:22.977Z,2.63
2023-10-26T03:35:52.632Z,2.85
2023-10-26T03:38:20.714Z,3.30
2023-10-26T03:40:52.998Z,3.17
2023-10-26T03:43:21.223Z,3.67
2023-10-26T03:45:49.269Z,4.25
2023-10-26T03:48:17.963Z,7.68
2023-10-26T03:50:46.142Z,3.58
2023-10-26T03:53:14.943Z,3.45
2023-10-26T03:55:42.965Z,3.40
2023-10-26T03:58:15.479Z,3.83
2023-10-26T04:00:43.761Z,1.80
2023-10-26T04:03:12.161Z,3.38
2023-10-26T04:05:40.697Z,3.75
2023-10-26T04:08:08.675Z,3.67
2023-10-26T04:10:36.771Z,4.70
2023-10-26T04:13:05.045Z,2.25
2023-10-26T04:15:34.794Z,3.20
2023-10-26T04:18:05.738Z,2.85
2023-10-26T04:20:34.485Z,3.78
2023-10-26T04:23:02.462Z,4.72
2023-10-26T04:25:46.512Z,3.50
2023-10-26T04:28:21.316Z,2.78
2023-10-26T04:30:51.488Z,3.08
2023-10-26T04:33:20.217Z,4.22
2023-10-26T04:35:49.335Z,4.50
2023-10-26T04:38:17.502Z,3.50
2023-10-26T04:40:46.241Z,4.45
2023-10-26T04:43:15.146Z,4.13
2023-10-26T04:45:43.643Z,7.53
2023-10-26T04:48:13.440Z,4.13
2023-10-26T04:50:43.920Z,4.13
2023-10-26T04:53:12.181Z,3.58
2023-10-26T04:55:40.270Z,3.80
2023-10-26T04:58:09.208Z,4.72
2023-10-26T05:00:37.342Z,3.83
2023-10-26T05:03:05.505Z,2.75
2023-10-26T05:05:35.943Z,2.60
2023-10-26T05:08:06.412Z,3.10
2023-10-26T05:10:34.943Z,2.88
2023-10-26T05:13:04.522Z,2.25
2023-10-26T05:15:33.138Z,2.40
2023-10-26T05:18:01.269Z,2.40
2023-10-26T05:20:31.485Z,3.72
2023-10-26T05:23:01.206Z,2.90
2023-10-26T05:25:29.426Z,6.50
2023-10-26T05:27:57.468Z,3.25
2023-10-26T05:30:25.977Z,3.17
2023-10-26T05:32:54.227Z,3.72
2023-10-26T05:35:22.623Z,2.35
2023-10-26T05:37:50.624Z,2.33
2023-10-26T05:40:20.592Z,2.17
2023-10-26T05:42:48.711Z,2.15
2023-10-26T05:45:17.156Z,4.05
2023-10-26T05:47:47.660Z,3.20
2023-10-26T05:50:15.951Z,7.28
2023-10-26T05:52:44.036Z,2.30
2023-10-26T05:55:12.319Z,5.47
2023-10-26T05:57:41.594Z,2.92
2023-10-26T06:00:11.045Z,4.68
2023-10-26T06:02:42.065Z,2.72
2023-10-26T06:05:10.258Z,3.40
2023-10-26T06:07:38.437Z,4.18
2023-10-26T06:10:07.726Z,4.18
2023-10-26T06:12:35.796Z,4.18
2023-10-26T06:15:05.592Z,3.80
2023-10-26T06:17:34.612Z,3.45
2023-10-26T06:20:02.987Z,6.38
2023-10-26T06:22:31.639Z,3.22
2023-10-26T06:24:59.724Z,3.53
2023-10-26T06:27:27.848Z,3.47
2023-10-26T06:29:55.974Z,4.85
2023-10-26T06:32:25.536Z,3.78
2023-10-26T06:34:53.655Z,4.03
2023-10-26T06:37:21.654Z,4.15
2023-10-26T06:39:49.701Z,3.17
2023-10-26T06:42:17.891Z,4.55
2023-10-26T06:44:47.467Z,3.33
2023-10-26T06:47:16.526Z,3.05
2023-10-26T06:49:45.914Z,5.05
2023-10-26T06:52:14.546Z,3.38
2023-10-26T06:54:43.182Z,4.10
2023-10-26T06:57:11.944Z,4.43
2023-10-26T06:59:40.072Z,3.47
2023-10-26T07:02:10.420Z,3.15
2023-10-26T07:04:41.211Z,4.35
2023-10-26T07:07:10.686Z,4.20
2023-10-26T07:09:39.304Z,6.15
2023-10-26T07:12:08.507Z,3.33
2023-10-26T07:14:35.620Z,5.43
2023-10-26T07:17:04.101Z,3.40
2023-10-26T07:19:32.581Z,4.70
2023-10-26T07:22:00.854Z,2.83
2023-10-26T07:24:30.663Z,5.97
2023-10-26T07:26:59.286Z,6.05
2023-10-26T07:29:27.429Z,6.40
2023-10-26T07:31:57.204Z,3.33
2023-10-26T07:34:26.238Z,3.47
2023-10-26T07:36:54.682Z,4.88
2023-10-26T07:39:45.879Z,3.47
2023-10-26T07:42:14.076Z,3.60
2023-10-26T07:44:42.782Z,3.53
2023-10-26T07:47:11.760Z,3.72
2023-10-26T07:49:40.039Z,7.63
2023-10-26T07:52:08.511Z,3.13
2023-10-26T07:54:37.271Z,3.83
2023-10-26T07:57:06.298Z,6.05
2023-10-26T07:59:36.442Z,2.53
2023-10-26T08:02:05.641Z,2.80
2023-10-26T08:04:34.654Z,3.10
2023-10-26T08:07:02.883Z,2.88
2023-10-26T08:09:33.485Z,2.05
2023-10-26T08:12:02.567Z,2.30
2023-10-26T08:16:09.572Z,1.90
2023-10-26T08:17:22.293Z,3.35
2023-10-26T08:19:53.536Z,3.50
2023-10-26T08:22:22.433Z,2.33
2023-10-26T08:24:51.207Z,2.60
2023-10-26T08:27:19.814Z,1.50
2023-10-26T08:29:48.881Z,2.42
2023-10-26T08:32:18.507Z,1.98
2023-10-26T08:34:48.661Z,2.45
2023-10-26T08:37:18.779Z,1.25
2023-10-26T08:39:47.236Z,1.85
2023-10-26T08:42:17.090Z,4.25
2023-10-26T08:44:46.256Z,1.95
2023-10-26T08:47:18.643Z,2.13
2023-10-26T08:50:08.213Z,1.75
2023-10-26T08:52:43.773Z,2.75
2023-10-26T08:55:12.369Z,2.15
2023-10-26T08:57:48.515Z,1.85
2023-10-26T09:00:17.820Z,1.35
2023-10-26T09:02:46.962Z,1.48
2023-10-26T09:05:17.527Z,1.83
2023-10-26T09:07:46.202Z,2.60
2023-10-26T09:10:14.968Z,1.45
2023-10-26T09:13:01.358Z,3.63
2023-10-26T09:15:30.335Z,2.47
2023-10-26T09:18:01.560Z,2.10
2023-10-26T09:20:32.988Z,3.03
2023-10-26T09:23:01.649Z,2.58
2023-10-26T09:25:30.678Z,1.38
2023-10-26T09:28:04.299Z,2.90
2023-10-26T09:30:34.114Z,3.33
2023-10-26T09:33:06.500Z,1.88
2023-10-26T09:35:36.783Z,4.50
2023-10-26T09:38:05.548Z,4.07
2023-10-26T09:40:33.724Z,2.03
2023-10-26T09:43:02.445Z,3.25
2023-10-26T09:45:31.141Z,3.15
2023-10-26T09:48:04.560Z,5.28
2023-10-26T09:50:39.382Z,5.78
2023-10-26T09:55:39.804Z,2.65
2023-10-26T09:58:09.928Z,3.05
2023-10-26T10:00:38.566Z,2.72
2023-10-26T10:03:14.414Z,2.83
2023-10-26T10:05:45.188Z,2.97
2023-10-26T10:08:15.403Z,3.20
2023-10-26T10:11:18.509Z,3.70
2023-10-26T10:13:47.792Z,2.47
2023-10-26T10:16:52.069Z,1.70
2023-10-26T10:19:24.929Z,1.75
2023-10-26T10:21:54.231Z,4.72
2023-10-26T10:24:55.892Z,3.95
2023-10-26T10:27:24.543Z,2.58
2023-10-26T10:29:53.244Z,1.38
2023-10-26T10:32:53.379Z,1.67
2023-10-26T10:35:40.055Z,2.83
2023-10-26T10:38:22.562Z,3.65
2023-10-26T10:41:20.193Z,1.50
2023-10-26T10:43:49.332Z,1.30
2023-10-26T10:46:23.152Z,1.60
2023-10-26T10:49:12.812Z,1.48
2023-10-26T10:51:42.796Z,1.70
2023-10-26T10:56:49.414Z,3.38
2023-10-26T10:59:22.163Z,2.05
2023-10-26T11:01:51.756Z,2.27
2023-10-26T11:04:23.319Z,2.13
2023-10-26T11:06:51.629Z,2.25
2023-10-26T11:09:24.016Z,2.25
2023-10-26T11:11:54.328Z,2.50
2023-10-26T11:14:23.780Z,3.60
2023-10-26T11:16:53.508Z,1.63
2023-10-26T11:19:21.598Z,2.40
2023-10-26T11:21:56.793Z,1.63
2023-10-26T11:24:32.575Z,5.97
2023-10-26T11:27:10.435Z,1.83
2023-10-26T11:29:39.239Z,3.25
2023-10-26T11:32:19.964Z,4.80
2023-10-26T11:35:04.573Z,4.38
2023-10-26T11:37:33.534Z,4.55
2023-10-26T11:40:02.151Z,20.70
2023-10-26T11:42:48.492Z,7.85
2023-10-26T11:45:17.687Z,6.32
2023-10-26T11:47:50.166Z,25.23
2023-10-26T11:50:23.314Z,4.77
2023-10-26T11:52:52.426Z,3.83
2023-10-26T11:55:21.746Z,6.35
2023-10-26T11:57:51.891Z,5.22
2023-10-26T12:00:21.829Z,6.57
2023-10-26T12:02:50.211Z,5.88
2023-10-26T12:05:19.705Z,17.05
2023-10-26T12:07:49.767Z,4.57
2023-10-26T12:10:21.710Z,4.85
2023-10-26T12:12:52.503Z,6.90
2023-10-26T12:15:24.088Z,14.73
2023-10-26T12:17:52.828Z,9.80
2023-10-26T12:20:23.000Z,7.78
2023-10-26T12:22:53.508Z,7.82
2023-10-26T12:25:22.262Z,8.80
2023-10-26T12:28:12.191Z,10.45
2023-10-26T12:30:44.546Z,11.50
2023-10-26T12:33:15.628Z,10.95
2023-10-26T12:35:49.914Z,5.15
2023-10-26T12:38:20.965Z,6.90
2023-10-26T12:40:50.320Z,10.20
2023-10-26T12:43:20.402Z,5.78
2023-10-26T12:45:48.918Z,9.30
2023-10-26T12:48:17.392Z,7.35
2023-10-26T12:50:48.135Z,6.82
2023-10-26T12:53:17.080Z,7.25
2023-10-26T12:55:46.173Z,10.07
2023-10-26T12:58:16.304Z,8.00
2023-10-26T13:00:46.855Z,13.52
2023-10-26T13:03:15.629Z,9.68
2023-10-26T13:05:44.155Z,6.55
2023-10-26T13:08:12.847Z,10.20
2023-10-26T13:10:41.678Z,9.23
2023-10-26T13:13:10.397Z,6.60
2023-10-26T13:15:40.648Z,10.02
2023-10-26T13:18:10.491Z,8.73
2023-10-26T13:20:39.042Z,10.05
2023-10-26T13:23:07.403Z,9.65
2023-10-26T13:25:37.975Z,7.22
2023-10-26T13:28:06.916Z,8.25
2023-10-26T13:30:35.381Z,7.35
2023-10-26T13:33:04.174Z,6.90
2023-10-26T13:35:34.648Z,7.55
2023-10-26T13:38:03.090Z,5.65
2023-10-26T13:40:31.847Z,7.85
2023-10-26T13:43:02.015Z,6.25
2023-10-26T13:45:30.730Z,6.63
2023-10-26T13:48:01.024Z,9.00
2023-10-26T13:50:30.682Z,6.25
2023-10-26T13:53:01.333Z,9.45
2023-10-26T13:55:29.776Z,10.32
2023-10-26T13:58:01.617Z,6.80
2023-10-26T14:00:30.469Z,9.88
2023-10-26T14:02:59.306Z,6.13
2023-10-26T14:05:30.668Z,5.70
2023-10-26T14:08:01.081Z,5.78
2023-10-26T14:10:29.532Z,5.05
2023-10-26T14:12:58.314Z,6.85
2023-10-26T14:15:28.399Z,6.90
2023-10-26T14:17:56.770Z,5.60
2023-10-26T14:20:26.383Z,7.45
2023-10-26T14:22:54.932Z,4.20
2023-10-26T14:25:25.104Z,6.78
2023-10-26T14:27:54.008Z,4.07
2023-10-26T14:30:22.845Z,8.27
2023-10-26T14:32:51.589Z,6.90
2023-10-26T14:35:20.343Z,6.30
2023-10-26T14:37:51.613Z,6.75
2023-10-26T14:40:20.875Z,8.90
2023-10-26T14:42:50.473Z,8.10
2023-10-26T14:45:19.115Z,5.38
2023-10-26T14:47:47.856Z,6.47
2023-10-26T14:50:16.892Z,4.97
2023-10-26T14:52:45.253Z,5.90
2023-10-26T14:55:17.409Z,6.07
2023-10-26T14:57:46.179Z,7.25
2023-10-26T15:00:18.044Z,9.65
2023-10-26T15:02:46.846Z,8.27
2023-10-26T15:05:16.020Z,10.90
2023-10-26T15:07:44.482Z,11.10
2023-10-26T15:10:24.205Z,14.13
2023-10-26T15:12:55.631Z,12.55
2023-10-26T15:15:26.242Z,12.88
2023-10-26T15:17:55.121Z,39.38
2023-10-26T15:20:23.643Z,9.38
2023-10-26T15:22:52.394Z,9.93
2023-10-26T15:25:21.290Z,13.98
2023-10-26T15:27:49.437Z,11.05
2023-10-26T15:30:17.257Z,14.82
2023-10-26T15:32:46.902Z,13.23
2023-10-26T15:35:15.107Z,11.30
2023-10-26T15:37:42.967Z,10.30
2023-10-26T15:40:14.069Z,9.98
2023-10-26T15:42:42.199Z,8.57
2023-10-26T15:45:12.500Z,7.53
2023-10-26T15:47:40.788Z,8.55
2023-10-26T15:50:11.322Z,9.00
2023-10-26T15:52:39.545Z,11.38
2023-10-26T15:55:08.117Z,10.93
2023-10-26T15:57:37.920Z,8.07
2023-10-26T16:00:10.838Z,8.75
2023-10-26T16:02:39.196Z,8.65
2023-10-26T16:05:07.361Z,9.88
2023-10-26T16:07:37.993Z,9.60
2023-10-26T16:10:06.959Z,9.20
2023-10-26T16:12:35.614Z,11.82
2023-10-26T16:15:03.954Z,10.38
2023-10-26T16:17:33.122Z,8.25
2023-10-26T16:20:00.931Z,8.18
2023-10-26T16:22:28.822Z,10.10
2023-10-26T16:24:58.225Z,8.63
2023-10-26T16:27:26.838Z,8.27
2023-10-26T16:29:54.899Z,8.15
2023-10-26T16:32:27.643Z,9.57
2023-10-26T16:34:56.433Z,8.30
2023-10-26T16:37:24.412Z,9.82
2023-10-26T16:39:52.641Z,8.23
2023-10-26T16:42:21.883Z,11.07
2023-10-26T16:44:49.862Z,11.70
2023-10-26T16:47:17.865Z,14.57
2023-10-26T16:49:45.860Z,14.60
2023-10-26T16:52:13.996Z,10.30
2023-10-26T16:54:42.335Z,17.65
2023-10-26T16:57:11.143Z,12.75
2023-10-26T16:59:40.472Z,12.23
2023-10-26T17:02:09.641Z,11.52
2023-10-26T17:04:38.277Z,13.52
2023-10-26T17:07:06.150Z,16.73
2023-10-26T17:09:34.153Z,19.60
2023-10-26T17:12:06.179Z,16.23
2023-10-26T17:14:34.975Z,13.88
2023-10-26T17:17:04.672Z,14.50
2023-10-26T17:19:32.650Z,15.82
2023-10-26T17:22:00.530Z,14.75
2023-10-26T17:24:28.548Z,14.20
2023-10-26T17:26:56.415Z,19.08
2023-10-26T17:29:24.794Z,18.70
2023-10-26T17:31:53.264Z,19.38
2023-10-26T17:34:23.388Z,20.13
2023-10-26T17:36:51.197Z,14.15
2023-10-26T17:39:19.443Z,14.38
2023-10-26T17:41:47.718Z,19.80
2023-10-26T17:44:17.602Z,13.98
2023-10-26T17:46:45.873Z,19.85
2023-10-26T17:49:16.316Z,22.92
2023-10-26T17:51:45.641Z,16.42
2023-10-26T17:54:16.299Z,14.32
2023-10-26T17:56:44.113Z,15.05
2023-10-26T17:59:12.269Z,16.23
2023-10-26T18:01:40.614Z,17.42
2023-10-26T18:04:08.819Z,16.67
2023-10-26T18:06:36.835Z,17.38
2023-10-26T18:09:06.600Z,16.30
2023-10-26T18:11:34.478Z,17.00
2023-10-26T18:14:02.354Z,19.15
2023-10-26T18:16:29.960Z,17.90
2023-10-26T18:19:00.627Z,17.88
2023-10-26T18:21:28.773Z,18.77
2023-10-26T18:23:57.090Z,21.45
2023-10-26T18:26:26.981Z,16.75
2023-10-26T18:28:55.049Z,23.17
2023-10-26T18:31:23.599Z,20.38
2023-10-26T18:33:55.462Z,19.90
2023-10-26T18:36:24.931Z,18.23
2023-10-26T18:38:52.693Z,19.77
2023-10-26T18:41:23.227Z,20.63
2023-10-26T18:46:23.622Z,21.08
2023-10-26T18:48:51.626Z,19.05
2023-10-26T18:51:20.021Z,21.67
2023-10-26T18:53:49.702Z,22.88
2023-10-26T18:56:20.301Z,21.27
2023-10-26T18:58:48.063Z,23.10
2023-10-26T19:01:17.791Z,22.50
2023-10-26T19:03:57.934Z,23.17
2023-10-26T19:06:30.777Z,25.00
2023-10-26T19:09:00.845Z,25.33
2023-10-26T19:11:29.286Z,27.65
2023-10-26T19:13:57.734Z,26.13
2023-10-26T19:16:27.157Z,25.88
2023-10-26T19:18:55.817Z,26.52
2023-10-26T19:21:24.273Z,21.77
2023-10-26T19:23:52.132Z,22.30
2023-10-26T19:26:20.161Z,28.75
2023-10-26T19:28:48.120Z,24.65
2023-10-26T19:31:16.170Z,24.67
2023-10-26T19:33:47.958Z,19.60
2023-10-26T19:36:16.515Z,21.33
2023-10-26T19:38:45.441Z,17.95
2023-10-26T19:41:15.840Z,23.23
2023-10-26T19:43:43.799Z,19.23
2023-10-26T19:46:11.894Z,24.67
2023-10-26T19:48:40.255Z,24.23
2023-10-26T19:51:14.710Z,22.17
2023-10-26T19:53:45.318Z,23.90
2023-10-26T19:56:13.588Z,23.45
2023-10-26T19:58:41.513Z,21.60
2023-10-26T20:01:13.953Z,22.55
2023-10-26T20:03:42.178Z,30.90
2023-10-26T20:06:11.576Z,27.38
2023-10-26T20:08:40.352Z,27.70
2023-10-26T20:11:10.826Z,26.85
2023-10-26T20:13:39.183Z,32.47
2023-10-26T20:16:07.517Z,33.53
2023-10-26T20:18:38.735Z,27.98
2023-10-26T20:21:06.824Z,27.45
2023-10-26T20:23:36.062Z,29.92
2023-10-26T20:26:04.375Z,26.52
2023-10-26T20:28:32.317Z,27.40
2023-10-26T20:31:02.851Z,34.65
2023-10-26T20:33:30.562Z,30.65
2023-10-26T20:35:58.983Z,25.25
2023-10-26T20:38:27.437Z,23.55
2023-10-26T20:40:59.132Z,22.70
2023-10-26T20:43:27.071Z,20.08
2023-10-26T20:45:58.802Z,23.02
2023-10-26T20:48:27.022Z,20.85
2023-10-26T20:50:56.635Z,15.60
2023-10-26T20:53:28.319Z,10.38
2023-10-26T20:56:00.227Z,18.00
2023-10-26T20:58:29.026Z,15.45
2023-10-26T21:00:58.895Z,13.55
2023-10-26T21:03:27.050Z,14.63
2023-10-26T21:05:55.678Z,18.52
2023-10-26T21:08:23.683Z,17.70
2023-10-26T21:10:51.847Z,20.20
2023-10-26T21:13:21.881Z,16.33
2023-10-26T21:15:49.933Z,13.55
2023-10-26T21:18:18.030Z,14.68
2023-10-26T21:20:45.952Z,8.85
2023-10-26T21:23:13.966Z,18.35
2023-10-26T21:25:42.993Z,15.75
2023-10-26T21:28:11.567Z,15.32
2023-10-26T21:30:41.209Z,13.80
2023-10-26T21:33:09.330Z,19.52
2023-10-26T21:35:46.781Z,14.52
2023-10-26T21:38:15.123Z,14.85
2023-10-26T21:40:42.928Z,23.05
2023-10-26T21:43:10.709Z,10.07
2023-10-26T21:45:41.017Z,16.42
2023-10-26T21:48:11.260Z,12.23
2023-10-26T21:50:40.099Z,15.88
2023-10-26T21:53:08.614Z,18.20
2023-10-26T21:55:38.576Z,10.57
2023-10-26T21:58:06.931Z,16.85
2023-10-26T22:00:35.209Z,14.57
2023-10-26T22:03:06.233Z,19.08
2023-10-26T22:05:34.325Z,11.88
2023-10-26T22:08:02.338Z,14.95
2023-10-26T22:10:30.221Z,13.85
2023-10-26T22:12:58.063Z,14.55
2023-10-26T22:15:26.932Z,8.73
2023-10-26T22:17:55.074Z,13.38
2023-10-26T22:20:24.779Z,17.55
2023-10-26T22:22:52.671Z,13.05
2023-10-26T22:25:21.612Z,16.70
2023-10-26T22:27:49.711Z,10.40
2023-10-26T22:30:18.235Z,9.52
2023-10-26T22:32:46.592Z,13.93
2023-10-26T22:35:14.670Z,12.02
2023-10-26T22:37:44.385Z,18.33
2023-10-26T22:40:13.730Z,15.25
2023-10-26T22:42:41.597Z,21.45
2023-10-26T22:45:12.550Z,15.20
2023-10-26T22:47:40.639Z,17.10
2023-10-26T22:50:10.015Z,14.57
2023-10-26T22:52:38.204Z,19.02
2023-10-26T22:55:09.096Z,10.18
2023-10-26T22:57:37.217Z,16.15
2023-10-26T23:00:07.611Z,12.70
2023-10-26T23:02:36.038Z,20.42
2023-10-26T23:05:05.204Z,13.23
2023-10-26T23:07:34.589Z,19.80
2023-10-26T23:10:03.127Z,18.27
2023-10-26T23:12:33.307Z,16.00
2023-10-26T23:15:01.408Z,10.32
2023-10-26T23:17:29.727Z,10.18
2023-10-26T23:19:57.847Z,25.55
2023-10-26T23:22:25.935Z,21.88
2023-10-26T23:24:54.702Z,9.02
2023-10-26T23:27:23.217Z,15.45
2023-10-26T23:29:52.574Z,8.63
2023-10-26T23:32:20.719Z,16.02
2023-10-26T23:34:48.856Z,20.20
2023-10-26T23:37:17.557Z,19.95
2023-10-26T23:39:45.897Z,14.43
2023-10-26T23:42:14.029Z,16.17
2023-10-26T23:44:42.196Z,12.63
2023-10-26T23:47:13.213Z,16.02
2023-10-26T23:49:41.213Z,16.02
2023-10-26T23:52:09.292Z,14.13
2023-10-26T23:54:37.280Z,19.40
2023-10-26T23:57:05.768Z,16.02
2023-10-26T23:59:33.979Z,11.50
